Aviation Digital Data Service (ADDS)

Output produced by METARs form (0707 UTC 07 April 2020)
found at http://www.aviationweather.gov/metar/data/
 
METAR text: KGYI 070655Z AUTO 15006KT 7SM SCT007 SCT032 18/17 A2996 RMK AO2 T01830174
Conditions at: KGYI (SHERMAN/DENISON , TX, US) observed 0655 UTC 07 April 2020
Temperature: 18.3°C (65°F)
Dewpoint: 17.4°C (63°F) [RH = 94%]
Pressure (altimeter): 29.96 inches Hg (1014.6 mb)
Winds: from the SSE (150 degrees) at 7 MPH (6 knots; 3.1 m/s)
Visibility: 7 miles (11 km)
Ceiling: at least 12,000 feet AGL
Clouds: scattered clouds at 700 feet AGL
scattered clouds at 3200 feet AGL
Weather: automated observation with no human augmentation;
there may or may not be significant weather present at this time